Time;durP1;ratioP1;P1;durP2;ratioP2;P2;SDS_P1;SDS_P2;PMS_P1;PMS_P2;Temp;Humidity;BMP_temperature;BMP_pressure;BME280_temperature;BME280_humidity;BME280_pressure;Samples;Min_cycle;Max_cycle;Signal;HPM_P1;HPM_P2
2022/02/15 00:01:31;;;;;;;37.78;15.48;;;21.10;54.70;;;;;;21144372;28;20044;-56
2022/02/15 00:11:33;;;;;;;37.05;14.68;;;20.70;55.40;;;;;;21153123;28;20051;-56
2022/02/15 00:21:35;;;;;;;36.78;13.48;;;;;;;;;;21143260;28;20482;-56
2022/02/15 00:31:37;;;;;;;28.65;13.13;;;20.50;56.20;;;;;;21143043;28;20050;-56
2022/02/15 00:41:39;;;;;;;29.48;12.05;;;;;;;;;;21151393;28;20048;-56
2022/02/15 00:51:41;;;;;;;30.00;11.07;;;20.30;56.70;;;;;;21156442;28;20561;-56
2022/02/15 01:01:43;;;;;;;24.67;11.38;;;20.40;58.10;;;;;;21159513;28;20082;-57
2022/02/15 01:11:45;;;;;;;22.35;9.57;;;22.00;56.30;;;;;;21165277;28;20047;-57
2022/02/15 01:24:24;;;;;;;21.60;9.82;;;23.30;54.60;;;;;;20994086;27;20399;-56
2022/02/15 01:34:26;;;;;;;16.63;8.77;;;24.50;52.70;;;;;;20886893;28;20041;-57
2022/02/15 01:44:30;;;;;;;17.85;8.25;;;24.70;51.70;;;;;;20893214;28;20055;-56
2022/02/15 01:54:32;;;;;;;14.70;8.45;;;24.30;51.30;;;;;;20858117;28;20135;-57
2022/02/15 02:08:03;;;;;;;14.93;6.43;;;23.70;51.60;;;;;;21019608;27;20521;-57
2022/02/15 02:18:06;;;;;;;16.77;7.50;;;22.60;52.30;;;;;;20987435;28;20055;-58
2022/02/15 02:28:12;;;;;;;12.30;6.38;;;;;;;;;;20981091;28;20045;-56
2022/02/15 02:38:17;;;;;;;16.48;6.43;;;21.90;52.40;;;;;;20981351;28;20080;-57
2022/02/15 02:48:24;;;;;;;12.70;5.35;;;20.80;54.50;;;;;;20990465;28;20518;-56
2022/02/15 02:58:31;;;;;;;12.35;5.00;;;;;;;;;;20966231;28;20065;-57
2022/02/15 03:08:36;;;;;;;11.93;5.60;;;20.00;55.90;;;;;;20976636;28;20060;-56
2022/02/15 03:18:44;;;;;;;11.13;4.47;;;;;;;;;;20921287;28;20475;-56
2022/02/15 03:28:49;;;;;;;12.05;5.10;;;;;;;;;;20919472;28;20052;-56
2022/02/15 03:38:52;;;;;;;12.13;4.68;;;;;;;;;;20909234;28;20045;-57
2022/02/15 03:48:55;;;;;;;8.10;3.85;;;19.70;57.30;;;;;;20906831;28;20067;-57
2022/02/15 03:58:58;;;;;;;10.32;3.88;;;19.10;58.20;;;;;;20908245;28;20485;-57
2022/02/15 04:09:00;;;;;;;6.75;3.33;;;19.40;58.80;;;;;;20924179;28;20064;-57
2022/02/15 04:19:03;;;;;;;8.02;3.80;;;;;;;;;;20932496;28;20758;-57
2022/02/15 04:29:06;;;;;;;5.82;3.28;;;22.50;55.40;;;;;;20914918;28;20486;-57
2022/02/15 04:39:07;;;;;;;5.50;2.85;;;23.70;53.60;;;;;;20915469;28;20422;-57
2022/02/15 04:49:12;;;;;;;4.82;2.60;;;24.30;52.10;;;;;;20933011;28;20079;-57
2022/02/15 04:59:14;;;;;;;4.82;2.67;;;23.90;51.80;;;;;;20928426;28;20052;-57
2022/02/15 05:09:16;;;;;;;4.93;2.55;;;23.20;51.80;;;;;;20917648;28;20064;-57
2022/02/15 05:19:18;;;;;;;4.60;2.35;;;22.30;52.60;;;;;;20920841;28;20109;-57
2022/02/15 05:29:19;;;;;;;4.88;2.42;;;21.70;53.10;;;;;;20913214;28;20056;-56
2022/02/15 05:39:21;;;;;;;3.78;1.92;;;20.90;53.60;;;;;;20902785;28;20475;-56
2022/02/15 05:49:23;;;;;;;4.88;2.00;;;20.50;54.30;;;;;;20911364;28;20052;-57
2022/02/15 05:59:24;;;;;;;4.30;1.80;;;20.00;55.00;;;;;;20905222;28;20045;-58
2022/02/15 06:09:26;;;;;;;4.60;1.98;;;;;;;;;;20900745;28;20060;-56
2022/02/15 06:28:05;;;;;;;13.85;3.53;;;19.30;58.00;;;;;;21056151;27;20419;-54
2022/02/15 06:38:07;;;;;;;12.40;3.10;;;19.30;57.30;;;;;;20984102;28;20101;-54
2022/02/15 06:48:10;;;;;;;9.85;3.33;;;20.20;57.40;;;;;;20982411;28;20403;-54
2022/02/15 06:58:11;;;;;;;11.93;3.60;;;21.70;56.20;;;;;;20973739;28;20080;-56
2022/02/15 07:08:13;;;;;;;7.05;2.83;;;23.30;54.30;;;;;;20979683;28;20715;-56
2022/02/15 07:18:15;;;;;;;9.23;2.88;;;24.50;52.70;;;;;;20968825;28;20047;-56
2022/02/15 07:28:17;;;;;;;5.78;2.20;;;25.00;51.40;;;;;;20934959;28;20045;-56
2022/02/15 07:38:20;;;;;;;7.22;2.58;;;24.60;51.10;;;;;;20868890;28;20476;-55
2022/02/15 07:48:22;;;;;;;6.22;2.15;;;23.80;51.50;;;;;;20831775;28;20049;-56
2022/02/15 07:58:24;;;;;;;9.15;2.50;;;23.10;51.80;;;;;;20848911;28;20072;-54
2022/02/15 08:08:26;;;;;;;5.00;2.03;;;22.20;52.50;;;;;;20870293;28;20516;-55
2022/02/15 08:18:28;;;;;;;6.28;2.38;;;21.50;53.30;;;;;;20843008;28;20162;-55
2022/02/15 08:28:31;;;;;;;6.28;1.88;;;20.80;54.50;;;;;;20885381;28;20462;-55
2022/02/15 08:38:33;;;;;;;5.80;2.38;;;20.40;55.20;;;;;;20861861;28;20491;-55
2022/02/15 08:48:35;;;;;;;6.47;2.10;;;20.00;56.00;;;;;;20868541;28;20506;-56
2022/02/15 08:58:36;;;;;;;5.55;1.90;;;19.70;56.60;;;;;;20849457;28;20041;-55
2022/02/15 09:08:38;;;;;;;3.50;1.80;;;19.50;57.00;;;;;;20853588;28;20054;-55
2022/02/15 09:18:39;;;;;;;3.63;1.88;;;19.40;57.40;;;;;;20874329;28;20146;-55
2022/02/15 09:28:41;;;;;;;3.85;1.35;;;20.00;57.60;;;;;;20856615;28;20045;-56
2022/02/15 09:38:43;;;;;;;3.20;1.75;;;21.70;56.00;;;;;;20865922;28;20049;-56
2022/02/15 09:48:45;;;;;;;2.45;1.30;;;23.20;54.20;;;;;;20859768;28;20057;-56
2022/02/15 09:58:47;;;;;;;3.58;1.50;;;24.20;52.40;;;;;;20856937;28;20056;-55
2022/02/15 10:08:58;;;;;;;4.70;1.35;;;24.30;51.70;;;;;;20879034;28;20048;-55
2022/02/15 10:19:00;;;;;;;3.40;2.00;;;23.80;51.70;;;;;;20863592;28;20049;-55
2022/02/15 10:29:01;;;;;;;3.22;1.17;;;23.20;52.00;;;;;;20862627;28;20049;-56
2022/02/15 10:39:04;;;;;;;2.33;0.98;;;22.70;51.90;;;;;;20855180;28;20041;-56
2022/02/15 10:49:07;;;;;;;2.15;1.20;;;22.30;51.60;;;;;;20869498;28;20053;-56
2022/02/15 10:59:12;;;;;;;2.13;0.90;;;21.90;52.00;;;;;;20857567;28;20053;-55
2022/02/15 11:09:19;;;;;;;2.05;1.10;;;21.50;52.70;;;;;;20863270;28;20485;-55
2022/02/15 11:19:31;;;;;;;2.30;1.25;;;21.10;53.50;;;;;;20867956;28;20510;-55
2022/02/15 11:29:33;;;;;;;1.75;0.90;;;20.80;53.60;;;;;;20877423;28;20049;-55
2022/02/15 11:39:38;;;;;;;3.17;1.13;;;20.70;54.10;;;;;;20875047;28;20049;-55
2022/02/15 11:49:53;;;;;;;2.85;0.93;;;20.50;54.50;;;;;;20876465;28;20721;-56
2022/02/15 11:59:55;;;;;;;2.00;0.80;;;20.40;55.00;;;;;;20880620;28;20049;-54
2022/02/15 12:10:02;;;;;;;1.95;0.90;;;20.40;55.10;;;;;;20857201;28;20053;-55
2022/02/15 12:20:04;;;;;;;1.67;0.75;;;20.40;55.40;;;;;;20871711;28;20055;-54
2022/02/15 12:39:55;;;;;;;3.00;1.00;;;20.40;55.20;;;;;;20974854;27;20400;-55
2022/02/15 12:49:58;;;;;;;3.65;1.05;;;20.40;55.70;;;;;;20884762;28;20056;-56
2022/02/15 13:00:01;;;;;;;2.97;0.95;;;20.40;55.20;;;;;;20895942;28;20045;-57
2022/02/15 13:10:04;;;;;;;1.20;0.75;;;20.40;55.30;;;;;;20887627;28;20060;-56
2022/02/15 13:20:15;;;;;;;1.92;0.60;;;20.40;54.70;;;;;;20934666;28;20061;-56
2022/02/15 13:30:26;;;;;;;1.73;0.68;;;20.50;54.50;;;;;;20886409;28;20080;-55
2022/02/15 13:40:29;;;;;;;2.35;0.60;;;20.50;54.90;;;;;;20901269;28;20084;-55
2022/02/15 13:50:33;;;;;;;1.75;0.70;;;20.40;55.00;;;;;;20857012;28;20080;-56
2022/02/15 14:00:35;;;;;;;1.42;0.60;;;20.40;55.10;;;;;;20837189;28;20053;-56
2022/02/15 14:10:37;;;;;;;1.42;0.47;;;20.40;55.20;;;;;;20859774;28;20061;-56
2022/02/15 14:20:39;;;;;;;1.02;0.50;;;20.40;55.30;;;;;;20859385;28;20476;-57
2022/02/15 14:30:44;;;;;;;0.88;0.50;;;20.40;55.10;;;;;;20850487;28;20045;-56
2022/02/15 14:40:45;;;;;;;3.22;0.60;;;20.30;55.20;;;;;;20842194;28;20049;-56
2022/02/15 14:50:47;;;;;;;2.53;0.88;;;20.40;55.70;;;;;;20849135;28;20104;-56
2022/02/15 15:00:49;;;;;;;1.00;0.52;;;21.50;55.10;;;;;;20841495;28;20079;-57
2022/02/15 15:10:51;;;;;;;1.50;0.63;;;22.90;53.90;;;;;;20829007;28;20486;-57
2022/02/15 15:20:53;;;;;;;0.63;0.50;;;23.90;52.40;;;;;;20832938;28;20045;-56
2022/02/15 15:30:55;;;;;;;0.80;0.43;;;24.80;51.10;;;;;;20830667;28;20408;-56
2022/02/15 15:45:15;;;;;;;0.65;0.30;;;25.00;49.90;;;;;;20975275;27;20403;-56
2022/02/15 15:55:17;;;;;;;1.17;0.47;;;24.70;49.60;;;;;;20969150;28;20052;-57
2022/02/15 16:05:19;;;;;;;2.38;0.35;;;24.30;49.50;;;;;;20969079;28;20037;-55
2022/02/15 16:15:21;;;;;;;1.08;0.38;;;23.80;49.80;;;;;;20969989;28;20361;-55
2022/02/15 16:25:23;;;;;;;1.08;0.65;;;23.30;49.70;;;;;;20959464;28;20042;-55
2022/02/15 16:35:29;;;;;;;1.13;0.55;;;22.70;49.60;;;;;;20945342;28;20531;-55
2022/02/15 16:45:31;;;;;;;2.17;0.70;;;22.20;49.90;;;;;;20920148;28;20495;-54
2022/02/15 16:55:32;;;;;;;1.23;0.45;;;21.60;50.60;;;;;;20888369;28;20099;-57
2022/02/15 17:05:34;;;;;;;2.30;0.65;;;21.20;51.40;;;;;;20856005;28;20141;-58
2022/02/15 17:15:36;;;;;;;2.03;0.45;;;20.90;51.90;;;;;;20822971;28;20054;-55
2022/02/15 17:25:37;;;;;;;2.75;0.50;;;20.80;52.40;;;;;;20725366;28;20104;-58
2022/02/15 17:35:39;;;;;;;2.10;0.57;;;21.00;52.40;;;;;;20709589;28;20092;-54
2022/02/15 17:45:41;;;;;;;1.30;0.60;;;21.20;52.20;;;;;;20707665;28;20050;-54
2022/02/15 17:55:43;;;;;;;0.98;0.40;;;21.30;52.10;;;;;;20712163;28;20437;-54
2022/02/15 18:05:44;;;;;;;1.65;0.50;;;21.30;52.30;;;;;;20717396;28;20054;-53
2022/02/15 18:15:47;;;;;;;1.58;0.50;;;22.00;52.30;;;;;;20696978;28;20050;-51
2022/02/15 18:25:49;;;;;;;1.02;0.32;;;23.40;51.40;;;;;;20714992;28;20053;-53
2022/02/15 18:35:52;;;;;;;1.65;0.70;;;24.50;50.40;;;;;;20693837;28;20428;-54
2022/02/15 18:49:51;;;;;;;2.20;0.65;;;25.30;49.20;;;;;;21341528;27;1984189;-59
2022/02/15 18:59:55;;;;;;;10.60;5.15;;;25.60;47.90;;;;;;21357787;27;20051;-60
2022/02/15 19:26:57;;;;;;;4.53;1.38;;;24.90;43.40;;;;;;21018680;27;20490;-60
2022/02/15 19:46:48;;;;;;;4.78;2.65;;;23.20;39.40;;;;;;21010323;27;20912;-61
2022/02/15 19:56:50;;;;;;;4.00;2.08;;;22.00;39.40;;;;;;20980252;28;20045;-58
2022/02/15 20:06:52;;;;;;;5.10;2.20;;;21.40;40.90;;;;;;20975174;28;20430;-57
2022/02/15 20:16:53;;;;;;;6.15;2.13;;;21.00;42.40;;;;;;20966616;28;20128;-59
2022/02/15 20:26:55;;;;;;;5.75;2.25;;;20.70;43.80;;;;;;20961516;28;20045;-63
2022/02/15 20:46:38;;;;;;;5.95;2.33;;;20.50;44.90;;;;;;20644955;28;20409;-61
2022/02/15 20:56:42;;;;;;;8.02;2.33;;;20.00;45.40;;;;;;20642573;28;20086;-62
2022/02/15 21:06:44;;;;;;;6.40;2.20;;;19.70;46.10;;;;;;20633963;28;20113;-62
2022/02/15 21:16:47;;;;;;;8.05;2.60;;;19.50;46.80;;;;;;20633438;28;20353;-66
2022/02/15 21:26:49;;;;;;;6.68;2.30;;;19.40;47.90;;;;;;20629670;28;20059;-69
2022/02/15 21:36:51;;;;;;;4.43;2.20;;;19.40;48.90;;;;;;20642472;28;20046;-67
2022/02/15 21:46:53;;;;;;;8.23;2.85;;;19.40;49.30;;;;;;20715214;28;20472;-67
2022/02/15 21:56:54;;;;;;;6.60;2.88;;;19.30;49.80;;;;;;20669546;28;20054;-65
2022/02/15 22:06:56;;;;;;;5.30;2.40;;;19.30;50.40;;;;;;20659362;28;20052;-64
2022/02/15 22:16:58;;;;;;;8.15;1.90;;;19.30;51.00;;;;;;20655815;28;20067;-63
2022/02/15 22:27:00;;;;;;;5.95;2.30;;;19.20;51.40;;;;;;20660312;28;20066;-64
2022/02/15 22:37:02;;;;;;;9.20;2.10;;;19.20;51.90;;;;;;20658308;28;20137;-64
2022/02/15 22:47:04;;;;;;;4.88;2.13;;;19.10;52.60;;;;;;20659015;28;20141;-64
2022/02/15 22:57:06;;;;;;;7.68;1.98;;;19.00;53.10;;;;;;20659536;28;20586;-64
2022/02/15 23:27:49;;;;;;;6.22;1.42;;;18.90;53.90;;;;;;20653578;28;20050;-65
2022/02/15 23:37:51;;;;;;;8.63;1.65;;;18.80;54.70;;;;;;20656708;28;20482;-67
2022/02/15 23:47:53;;;;;;;4.80;1.70;;;18.80;54.90;;;;;;20649689;28;20066;-64
2022/02/15 23:57:54;;;;;;;2.53;1.20;;;18.80;55.00;;;;;;20653742;28;20141;-66
